sensor_id;sensor_type;location;lat;lon;timestamp;temperature;humidity
44447;DHT22;30152;52.066;5.358;2023-02-28T00:01:07;-0.40;99.90
44447;DHT22;30152;52.066;5.358;2023-02-28T00:03:33;-0.10;99.90
44447;DHT22;30152;52.066;5.358;2023-02-28T00:06:02;-0.50;99.90
44447;DHT22;30152;52.066;5.358;2023-02-28T00:08:27;-0.40;99.90
44447;DHT22;30152;52.066;5.358;2023-02-28T00:10:53;0.10;99.90
44447;DHT22;30152;52.066;5.358;2023-02-28T00:18:11;-0.10;99.90
44447;DHT22;30152;52.066;5.358;2023-02-28T00:25:29;0.00;99.90
44447;DHT22;30152;52.066;5.358;2023-02-28T00:27:54;-0.10;99.90
44447;DHT22;30152;52.066;5.358;2023-02-28T00:30:23;0.10;99.90
44447;DHT22;30152;52.066;5.358;2023-02-28T00:32:50;0.40;99.90
44447;DHT22;30152;52.066;5.358;2023-02-28T00:37:42;0.00;99.90
44447;DHT22;30152;52.066;5.358;2023-02-28T00:40:08;0.30;99.90
44447;DHT22;30152;52.066;5.358;2023-02-28T00:42:34;0.60;99.90
44447;DHT22;30152;52.066;5.358;2023-02-28T00:49:52;1.00;99.90
44447;DHT22;30152;52.066;5.358;2023-02-28T00:52:18;0.40;99.90
44447;DHT22;30152;52.066;5.358;2023-02-28T00:54:43;0.50;99.90
44447;DHT22;30152;52.066;5.358;2023-02-28T00:57:09;0.40;99.90
44447;DHT22;30152;52.066;5.358;2023-02-28T01:02:00;0.60;99.90
44447;DHT22;30152;52.066;5.358;2023-02-28T01:06:52;0.60;99.90
44447;DHT22;30152;52.066;5.358;2023-02-28T01:09:18;0.70;99.90
44447;DHT22;30152;52.066;5.358;2023-02-28T01:11:43;0.70;99.90
44447;DHT22;30152;52.066;5.358;2023-02-28T01:14:17;0.80;99.90
44447;DHT22;30152;52.066;5.358;2023-02-28T01:16:43;0.90;99.90
44447;DHT22;30152;52.066;5.358;2023-02-28T01:24:02;1.30;99.90
44447;DHT22;30152;52.066;5.358;2023-02-28T01:26:29;1.30;99.90
44447;DHT22;30152;52.066;5.358;2023-02-28T01:28:54;1.80;99.90
44447;DHT22;30152;52.066;5.358;2023-02-28T01:31:20;0.90;99.90
44447;DHT22;30152;52.066;5.358;2023-02-28T01:36:15;1.20;99.90
44447;DHT22;30152;52.066;5.358;2023-02-28T01:38:41;1.20;99.90
44447;DHT22;30152;52.066;5.358;2023-02-28T01:41:07;1.60;99.90
44447;DHT22;30152;52.066;5.358;2023-02-28T01:46:08;1.20;99.90
44447;DHT22;30152;52.066;5.358;2023-02-28T01:48:38;1.00;99.90
44447;DHT22;30152;52.066;5.358;2023-02-28T01:51:08;1.60;99.90
44447;DHT22;30152;52.066;5.358;2023-02-28T01:53:39;1.40;99.90
44447;DHT22;30152;52.066;5.358;2023-02-28T01:56:09;1.40;99.90
44447;DHT22;30152;52.066;5.358;2023-02-28T01:58:36;1.30;99.90
44447;DHT22;30152;52.066;5.358;2023-02-28T02:03:29;1.70;99.90
44447;DHT22;30152;52.066;5.358;2023-02-28T02:05:55;1.60;99.90
44447;DHT22;30152;52.066;5.358;2023-02-28T02:08:26;1.60;99.90
44447;DHT22;30152;52.066;5.358;2023-02-28T02:10:54;1.20;99.90
44447;DHT22;30152;52.066;5.358;2023-02-28T02:16:02;1.30;99.90
44447;DHT22;30152;52.066;5.358;2023-02-28T02:18:32;1.60;99.90
44447;DHT22;30152;52.066;5.358;2023-02-28T02:27:03;1.40;99.90
44447;DHT22;30152;52.066;5.358;2023-02-28T02:29:59;2.00;99.90
44447;DHT22;30152;52.066;5.358;2023-02-28T02:36:03;1.50;99.90
44447;DHT22;30152;52.066;5.358;2023-02-28T02:41:52;1.70;99.90
44447;DHT22;30152;52.066;5.358;2023-02-28T02:44:26;1.50;99.90
44447;DHT22;30152;52.066;5.358;2023-02-28T02:47:05;1.30;99.90
44447;DHT22;30152;52.066;5.358;2023-02-28T02:49:33;1.40;99.90
44447;DHT22;30152;52.066;5.358;2023-02-28T02:52:07;1.70;99.90
44447;DHT22;30152;52.066;5.358;2023-02-28T02:54:35;1.70;99.90
44447;DHT22;30152;52.066;5.358;2023-02-28T02:57:08;1.40;99.90
44447;DHT22;30152;52.066;5.358;2023-02-28T02:59:37;1.10;99.90
44447;DHT22;30152;52.066;5.358;2023-02-28T03:02:06;1.50;99.90
44447;DHT22;30152;52.066;5.358;2023-02-28T03:04:40;1.60;99.90
44447;DHT22;30152;52.066;5.358;2023-02-28T03:07:07;1.60;99.90
44447;DHT22;30152;52.066;5.358;2023-02-28T03:09:33;1.70;99.90
44447;DHT22;30152;52.066;5.358;2023-02-28T03:11:59;1.60;99.90
44447;DHT22;30152;52.066;5.358;2023-02-28T03:14:40;1.70;99.90
44447;DHT22;30152;52.066;5.358;2023-02-28T03:24:58;1.90;99.90
44447;DHT22;30152;52.066;5.358;2023-02-28T03:27:29;1.50;99.90
44447;DHT22;30152;52.066;5.358;2023-02-28T03:32:38;1.40;99.90
44447;DHT22;30152;52.066;5.358;2023-02-28T03:37:37;1.60;99.90
44447;DHT22;30152;52.066;5.358;2023-02-28T03:40:13;1.60;99.90
44447;DHT22;30152;52.066;5.358;2023-02-28T03:42:42;1.30;99.90
44447;DHT22;30152;52.066;5.358;2023-02-28T03:45:20;2.80;99.90
44447;DHT22;30152;52.066;5.358;2023-02-28T03:47:58;1.30;99.90
44447;DHT22;30152;52.066;5.358;2023-02-28T03:50:37;1.60;99.90
44447;DHT22;30152;52.066;5.358;2023-02-28T03:55:44;1.70;99.90
44447;DHT22;30152;52.066;5.358;2023-02-28T04:01:10;1.90;99.90
44447;DHT22;30152;52.066;5.358;2023-02-28T04:03:38;2.00;99.90
44447;DHT22;30152;52.066;5.358;2023-02-28T04:06:05;1.80;99.90
44447;DHT22;30152;52.066;5.358;2023-02-28T04:08:32;1.90;99.90
44447;DHT22;30152;52.066;5.358;2023-02-28T04:11:04;1.90;99.90
44447;DHT22;30152;52.066;5.358;2023-02-28T04:13:31;1.40;99.90
44447;DHT22;30152;52.066;5.358;2023-02-28T04:18:22;1.60;99.90
44447;DHT22;30152;52.066;5.358;2023-02-28T04:23:14;1.40;99.90
44447;DHT22;30152;52.066;5.358;2023-02-28T04:25:39;1.60;99.90
44447;DHT22;30152;52.066;5.358;2023-02-28T04:28:06;2.00;99.90
44447;DHT22;30152;52.066;5.358;2023-02-28T04:32:58;2.00;99.90
44447;DHT22;30152;52.066;5.358;2023-02-28T04:45:08;1.90;99.90
44447;DHT22;30152;52.066;5.358;2023-02-28T04:47:35;1.80;99.90
44447;DHT22;30152;52.066;5.358;2023-02-28T04:50:01;2.10;99.90
44447;DHT22;30152;52.066;5.358;2023-02-28T04:54:53;2.40;99.90
44447;DHT22;30152;52.066;5.358;2023-02-28T04:59:44;1.60;99.90
44447;DHT22;30152;52.066;5.358;2023-02-28T05:04:36;2.00;99.90
44447;DHT22;30152;52.066;5.358;2023-02-28T05:07:02;1.70;99.90
44447;DHT22;30152;52.066;5.358;2023-02-28T05:09:28;1.20;99.90
44447;DHT22;30152;52.066;5.358;2023-02-28T05:11:54;1.80;99.90
44447;DHT22;30152;52.066;5.358;2023-02-28T05:14:20;1.70;99.90
44447;DHT22;30152;52.066;5.358;2023-02-28T05:16:45;2.90;99.90
44447;DHT22;30152;52.066;5.358;2023-02-28T05:21:41;1.30;99.90
44447;DHT22;30152;52.066;5.358;2023-02-28T05:24:13;2.20;99.90
44447;DHT22;30152;52.066;5.358;2023-02-28T05:26:41;1.50;99.90
44447;DHT22;30152;52.066;5.358;2023-02-28T05:29:07;1.70;99.90
44447;DHT22;30152;52.066;5.358;2023-02-28T05:31:33;1.60;99.90
44447;DHT22;30152;52.066;5.358;2023-02-28T05:36:25;1.40;99.90
44447;DHT22;30152;52.066;5.358;2023-02-28T05:38:51;1.90;99.90
44447;DHT22;30152;52.066;5.358;2023-02-28T05:41:18;1.70;99.90
44447;DHT22;30152;52.066;5.358;2023-02-28T05:43:45;1.30;99.90
44447;DHT22;30152;52.066;5.358;2023-02-28T05:46:12;2.80;99.90
44447;DHT22;30152;52.066;5.358;2023-02-28T05:48:39;1.70;99.90
44447;DHT22;30152;52.066;5.358;2023-02-28T05:51:06;2.00;99.90
44447;DHT22;30152;52.066;5.358;2023-02-28T05:53:32;1.60;99.90
44447;DHT22;30152;52.066;5.358;2023-02-28T05:55:58;1.50;99.90
44447;DHT22;30152;52.066;5.358;2023-02-28T05:58:24;1.60;99.90
44447;DHT22;30152;52.066;5.358;2023-02-28T06:00:56;1.60;99.90
44447;DHT22;30152;52.066;5.358;2023-02-28T06:08:15;1.50;99.90
44447;DHT22;30152;52.066;5.358;2023-02-28T06:10:41;2.00;99.90
44447;DHT22;30152;52.066;5.358;2023-02-28T06:20:27;1.60;99.90
44447;DHT22;30152;52.066;5.358;2023-02-28T06:22:56;2.30;99.90
44447;DHT22;30152;52.066;5.358;2023-02-28T06:30:16;1.40;99.90
44447;DHT22;30152;52.066;5.358;2023-02-28T06:32:41;1.60;99.90
44447;DHT22;30152;52.066;5.358;2023-02-28T06:35:07;1.00;99.90
44447;DHT22;30152;52.066;5.358;2023-02-28T06:37:33;1.30;99.90
44447;DHT22;30152;52.066;5.358;2023-02-28T06:42:24;1.60;99.90
44447;DHT22;30152;52.066;5.358;2023-02-28T06:44:54;1.20;99.90
44447;DHT22;30152;52.066;5.358;2023-02-28T06:47:21;1.60;99.90
44447;DHT22;30152;52.066;5.358;2023-02-28T06:49:47;1.70;99.90
44447;DHT22;30152;52.066;5.358;2023-02-28T06:52:12;1.30;99.90
44447;DHT22;30152;52.066;5.358;2023-02-28T06:54:38;1.50;99.90
44447;DHT22;30152;52.066;5.358;2023-02-28T06:57:03;1.10;99.90
44447;DHT22;30152;52.066;5.358;2023-02-28T06:59:30;1.20;99.90
44447;DHT22;30152;52.066;5.358;2023-02-28T07:01:55;1.50;99.90
44447;DHT22;30152;52.066;5.358;2023-02-28T07:04:21;2.20;99.90
44447;DHT22;30152;52.066;5.358;2023-02-28T07:09:13;1.20;99.90
44447;DHT22;30152;52.066;5.358;2023-02-28T07:11:39;1.40;99.90
44447;DHT22;30152;52.066;5.358;2023-02-28T07:14:06;1.40;99.90
44447;DHT22;30152;52.066;5.358;2023-02-28T07:16:32;1.40;99.90
44447;DHT22;30152;52.066;5.358;2023-02-28T07:21:24;1.30;99.90
44447;DHT22;30152;52.066;5.358;2023-02-28T07:23:50;1.70;99.90
44447;DHT22;30152;52.066;5.358;2023-02-28T07:26:18;1.20;99.90
44447;DHT22;30152;52.066;5.358;2023-02-28T07:28:46;1.00;99.90
44447;DHT22;30152;52.066;5.358;2023-02-28T07:31:13;1.40;99.90
44447;DHT22;30152;52.066;5.358;2023-02-28T07:33:39;1.70;99.90
44447;DHT22;30152;52.066;5.358;2023-02-28T07:36:07;1.50;99.90
44447;DHT22;30152;52.066;5.358;2023-02-28T07:38:35;1.30;99.90
44447;DHT22;30152;52.066;5.358;2023-02-28T07:50:55;1.70;99.90
44447;DHT22;30152;52.066;5.358;2023-02-28T07:53:20;1.70;99.90
44447;DHT22;30152;52.066;5.358;2023-02-28T08:00:38;1.60;99.90
44447;DHT22;30152;52.066;5.358;2023-02-28T08:03:03;1.90;99.90
44447;DHT22;30152;52.066;5.358;2023-02-28T08:07:56;1.80;99.90
44447;DHT22;30152;52.066;5.358;2023-02-28T08:10:22;2.00;99.90
44447;DHT22;30152;52.066;5.358;2023-02-28T08:20:07;2.00;99.90
44447;DHT22;30152;52.066;5.358;2023-02-28T08:25:00;3.40;99.90
44447;DHT22;30152;52.066;5.358;2023-02-28T08:32:17;2.20;99.90
44447;DHT22;30152;52.066;5.358;2023-02-28T08:34:43;2.20;99.90
44447;DHT22;30152;52.066;5.358;2023-02-28T08:37:08;2.60;99.90
44447;DHT22;30152;52.066;5.358;2023-02-28T08:39:35;2.60;99.90
44447;DHT22;30152;52.066;5.358;2023-02-28T08:42:02;2.30;99.90
44447;DHT22;30152;52.066;5.358;2023-02-28T08:44:27;2.70;99.90
44447;DHT22;30152;52.066;5.358;2023-02-28T08:49:19;2.40;99.90
44447;DHT22;30152;52.066;5.358;2023-02-28T08:54:10;2.70;99.90
44447;DHT22;30152;52.066;5.358;2023-02-28T08:59:03;2.70;99.90
44447;DHT22;30152;52.066;5.358;2023-02-28T09:01:29;2.60;99.90
44447;DHT22;30152;52.066;5.358;2023-02-28T09:03:56;2.60;99.90
44447;DHT22;30152;52.066;5.358;2023-02-28T09:06:24;2.90;99.90
44447;DHT22;30152;52.066;5.358;2023-02-28T10:49:13;6.40;71.90
44447;DHT22;30152;52.066;5.358;2023-02-28T11:24:45;7.40;66.20
44447;DHT22;30152;52.066;5.358;2023-02-28T12:17:21;7.30;67.90
44447;DHT22;30152;52.066;5.358;2023-02-28T12:19:57;7.40;66.80
44447;DHT22;30152;52.066;5.358;2023-02-28T12:22:28;8.10;68.60
44447;DHT22;30152;52.066;5.358;2023-02-28T12:27:41;7.60;60.90
44447;DHT22;30152;52.066;5.358;2023-02-28T12:30:50;7.50;61.70
44447;DHT22;30152;52.066;5.358;2023-02-28T12:33:20;7.50;68.40
44447;DHT22;30152;52.066;5.358;2023-02-28T12:35:51;7.80;62.00
44447;DHT22;30152;52.066;5.358;2023-02-28T12:38:41;7.60;64.40
44447;DHT22;30152;52.066;5.358;2023-02-28T12:42:03;8.00;69.90
44447;DHT22;30152;52.066;5.358;2023-02-28T12:44:11;8.30;68.00
44447;DHT22;30152;52.066;5.358;2023-02-28T12:46:59;8.40;66.50
44447;DHT22;30152;52.066;5.358;2023-02-28T12:49:30;8.70;62.20
44447;DHT22;30152;52.066;5.358;2023-02-28T12:51:59;8.30;58.60
44447;DHT22;30152;52.066;5.358;2023-02-28T12:54:37;8.40;65.70
44447;DHT22;30152;52.066;5.358;2023-02-28T12:57:17;8.50;63.90
44447;DHT22;30152;52.066;5.358;2023-02-28T12:59:57;8.50;65.00
44447;DHT22;30152;52.066;5.358;2023-02-28T13:11:45;8.70;65.40
44447;DHT22;30152;52.066;5.358;2023-02-28T13:14:30;8.90;59.20
44447;DHT22;30152;52.066;5.358;2023-02-28T13:22:05;8.50;58.50
44447;DHT22;30152;52.066;5.358;2023-02-28T13:24:51;8.30;59.10
44447;DHT22;30152;52.066;5.358;2023-02-28T13:32:33;8.10;62.00
44447;DHT22;30152;52.066;5.358;2023-02-28T16:27:42;6.80;58.70
44447;DHT22;30152;52.066;5.358;2023-02-28T16:30:35;6.60;64.50
44447;DHT22;30152;52.066;5.358;2023-02-28T16:33:00;7.50;65.60
44447;DHT22;30152;52.066;5.358;2023-02-28T16:55:07;6.20;66.60
44447;DHT22;30152;52.066;5.358;2023-02-28T17:09:43;5.60;65.50
44447;DHT22;30152;52.066;5.358;2023-02-28T17:24:20;4.70;78.80
44447;DHT22;30152;52.066;5.358;2023-02-28T17:26:45;5.50;80.80
44447;DHT22;30152;52.066;5.358;2023-02-28T17:29:19;4.40;75.10
44447;DHT22;30152;52.066;5.358;2023-02-28T17:36:43;4.00;84.10
44447;DHT22;30152;52.066;5.358;2023-02-28T17:39:11;3.90;78.90
44447;DHT22;30152;52.066;5.358;2023-02-28T17:41:36;4.00;85.90
44447;DHT22;30152;52.066;5.358;2023-02-28T17:51:22;3.50;81.50
44447;DHT22;30152;52.066;5.358;2023-02-28T18:50:10;1.80;91.10
44447;DHT22;30152;52.066;5.358;2023-02-28T18:59:54;1.20;94.50
44447;DHT22;30152;52.066;5.358;2023-02-28T19:04:45;1.60;95.20
44447;DHT22;30152;52.066;5.358;2023-02-28T19:07:11;1.30;95.30
44447;DHT22;30152;52.066;5.358;2023-02-28T19:12:02;1.50;94.50
44447;DHT22;30152;52.066;5.358;2023-02-28T19:16:54;1.50;96.60
44447;DHT22;30152;52.066;5.358;2023-02-28T19:26:37;1.10;96.90
44447;DHT22;30152;52.066;5.358;2023-02-28T19:29:04;1.10;94.00
44447;DHT22;30152;52.066;5.358;2023-02-28T19:31:29;1.50;95.90
44447;DHT22;30152;52.066;5.358;2023-02-28T19:41:15;0.90;94.80
44447;DHT22;30152;52.066;5.358;2023-02-28T19:43:41;1.60;96.80
44447;DHT22;30152;52.066;5.358;2023-02-28T19:46:08;1.00;97.50
44447;DHT22;30152;52.066;5.358;2023-02-28T20:13:15;0.30;97.00
44447;DHT22;30152;52.066;5.358;2023-02-28T20:20:32;0.10;99.40
44447;DHT22;30152;52.066;5.358;2023-02-28T20:27:53;0.60;99.60
44447;DHT22;30152;52.066;5.358;2023-02-28T21:28:57;-0.50;99.00
44447;DHT22;30152;52.066;5.358;2023-02-28T21:31:24;-0.70;99.90
44447;DHT22;30152;52.066;5.358;2023-02-28T21:33:55;-2.70;99.10
44447;DHT22;30152;52.066;5.358;2023-02-28T21:36:26;-0.40;99.70
44447;DHT22;30152;52.066;5.358;2023-02-28T21:38:55;-0.50;99.80
44447;DHT22;30152;52.066;5.358;2023-02-28T21:41:22;-0.50;99.90
44447;DHT22;30152;52.066;5.358;2023-02-28T21:43:54;-0.40;99.90
44447;DHT22;30152;52.066;5.358;2023-02-28T21:46:23;-0.60;99.90
44447;DHT22;30152;52.066;5.358;2023-02-28T21:48:49;-0.60;99.90
44447;DHT22;30152;52.066;5.358;2023-02-28T21:51:17;-0.70;99.90
44447;DHT22;30152;52.066;5.358;2023-02-28T21:53:43;-0.70;99.90
44447;DHT22;30152;52.066;5.358;2023-02-28T21:56:13;-0.60;99.90
44447;DHT22;30152;52.066;5.358;2023-02-28T22:01:15;-0.80;99.90
44447;DHT22;30152;52.066;5.358;2023-02-28T22:03:41;-0.50;99.90
44447;DHT22;30152;52.066;5.358;2023-02-28T22:06:12;-0.70;99.90
44447;DHT22;30152;52.066;5.358;2023-02-28T22:08:43;-0.60;99.90
44447;DHT22;30152;52.066;5.358;2023-02-28T22:11:10;-0.80;99.90
44447;DHT22;30152;52.066;5.358;2023-02-28T22:13:36;-0.80;99.90
